Time;durP1;ratioP1;P1;durP2;ratioP2;P2;SDS_P1;SDS_P2;PMS_P1;PMS_P2;Temp;Humidity;BMP_temperature;BMP_pressure;BME280_temperature;BME280_humidity;BME280_pressure;Samples;Min_cycle;Max_cycle;Signal;HPM_P1;HPM_P2
2022/05/21 00:01:28;;;;;;;;;;;11.90;99.90;;;;;;4998562;28;19925;-84
2022/05/21 00:03:54;;;;;;;;;;;11.80;99.90;;;;;;4989149;28;20007;-86
2022/05/21 00:06:20;;;;;;;;;;;11.90;99.90;;;;;;4951517;28;20836;-87
2022/05/21 00:08:46;;;;;;;;;;;11.80;99.90;;;;;;4977340;28;19987;-88
2022/05/21 00:11:11;;;;;;;;;;;11.90;99.90;;;;;;4999541;28;19925;-85
2022/05/21 00:13:37;;;;;;;;;;;11.80;99.90;;;;;;4997208;28;19931;-88
2022/05/21 00:16:05;;;;;;;;;;;11.90;99.90;;;;;;4998905;28;19925;-82
2022/05/21 00:18:31;;;;;;;;;;;11.80;99.90;;;;;;5000389;28;19963;-84
2022/05/21 00:20:57;;;;;;;;;;;11.90;99.90;;;;;;4982078;28;19929;-89
2022/05/21 00:23:24;;;;;;;;;;;11.80;99.90;;;;;;4998855;28;19983;-87
2022/05/21 00:25:51;;;;;;;;;;;11.80;99.90;;;;;;4979073;28;19926;-88
2022/05/21 00:28:17;;;;;;;;;;;11.80;99.90;;;;;;4996427;28;20386;-83
2022/05/21 00:30:44;;;;;;;;;;;11.70;99.90;;;;;;4999705;28;19944;-86
2022/05/21 00:33:09;;;;;;;;;;;11.70;99.90;;;;;;4963857;28;20015;-86
2022/05/21 00:35:35;;;;;;;;;;;11.70;99.90;;;;;;4944593;28;19988;-85
2022/05/21 00:38:01;;;;;;;;;;;11.70;99.90;;;;;;4961206;28;20371;-85
2022/05/21 00:40:27;;;;;;;;;;;11.60;99.90;;;;;;4981656;28;19932;-86
2022/05/21 00:42:54;;;;;;;;;;;11.60;99.90;;;;;;4980232;28;19925;-85
2022/05/21 00:45:19;;;;;;;;;;;11.70;99.90;;;;;;4980083;28;19936;-85
2022/05/21 00:47:45;;;;;;;;;;;11.80;99.90;;;;;;4995794;28;20294;-86
2022/05/21 00:50:13;;;;;;;;;;;11.70;99.90;;;;;;4976543;28;20386;-86
2022/05/21 00:52:39;;;;;;;;;;;11.70;99.90;;;;;;4995534;28;19925;-86
2022/05/21 00:55:26;;;;;;;;;;;11.70;99.90;;;;;;4960067;28;19975;-89
2022/05/21 01:00:48;;;;;;;;;;;11.70;99.90;;;;;;4972805;28;20457;-85
2022/05/21 01:03:15;;;;;;;;;;;11.80;99.90;;;;;;4954141;28;19926;-83
2022/05/21 01:05:43;;;;;;;;;;;11.70;99.90;;;;;;5000717;28;19996;-86
2022/05/21 01:08:08;;;;;;;;;;;11.80;99.90;;;;;;4974180;28;19983;-83
2022/05/21 01:10:37;;;;;;;;;;;11.80;99.90;;;;;;4981957;28;20356;-84
2022/05/21 01:13:04;;;;;;;;;;;11.70;99.90;;;;;;4974033;28;19952;-87
2022/05/21 01:15:32;;;;;;;;;;;11.70;99.90;;;;;;4997016;28;19925;-83
2022/05/21 01:17:58;;;;;;;;;;;11.70;99.90;;;;;;4979499;28;19932;-84
2022/05/21 01:20:34;;;;;;;;;;;11.70;99.90;;;;;;4974349;28;20976;-83
2022/05/21 01:22:59;;;;;;;;;;;11.70;99.90;;;;;;4969152;28;19936;-85
2022/05/21 01:25:25;;;;;;;;;;;11.50;99.90;;;;;;4955708;28;19926;-86
2022/05/21 01:27:53;;;;;;;;;;;11.70;99.90;;;;;;4954607;28;20063;-83
2022/05/21 01:30:21;;;;;;;;;;;11.60;99.90;;;;;;4974292;28;19925;-83
2022/05/21 01:32:47;;;;;;;;;;;11.60;99.90;;;;;;4956953;28;20230;-86
2022/05/21 01:35:13;;;;;;;;;;;11.70;99.90;;;;;;4957818;28;19929;-85
2022/05/21 01:37:39;;;;;;;;;;;11.70;99.90;;;;;;4955353;28;19946;-87
2022/05/21 01:40:07;;;;;;;;;;;11.70;99.90;;;;;;4942800;28;19925;-87
2022/05/21 01:42:34;;;;;;;;;;;11.80;99.90;;;;;;4958280;28;19929;-81
2022/05/21 01:44:59;;;;;;;;;;;11.80;99.90;;;;;;4967719;28;20013;-86
2022/05/21 01:47:25;;;;;;;;;;;11.90;99.90;;;;;;4954817;28;19925;-85
2022/05/21 01:49:51;;;;;;;;;;;12.00;99.90;;;;;;4959877;28;19925;-84
2022/05/21 01:52:17;;;;;;;;;;;12.00;99.90;;;;;;4956056;28;19925;-84
2022/05/21 01:54:43;;;;;;;;;;;12.00;99.90;;;;;;4979810;28;20276;-85
2022/05/21 01:57:09;;;;;;;;;;;12.10;99.90;;;;;;4961652;28;20291;-85
2022/05/21 01:59:35;;;;;;;;;;;12.10;99.90;;;;;;4974705;28;19925;-81
2022/05/21 02:02:01;;;;;;;;;;;12.20;99.90;;;;;;4972854;28;19965;-84
2022/05/21 02:04:27;;;;;;;;;;;12.20;99.90;;;;;;4977079;28;20064;-84
2022/05/21 02:06:53;;;;;;;;;;;12.20;99.90;;;;;;4976676;28;19929;-86
2022/05/21 02:09:18;;;;;;;;;;;12.30;99.90;;;;;;4950607;28;20347;-83
2022/05/21 02:11:45;;;;;;;;;;;12.30;99.90;;;;;;4955929;28;19973;-86
2022/05/21 02:14:10;;;;;;;;;;;12.40;99.90;;;;;;4940052;28;19925;-88
2022/05/21 02:16:36;;;;;;;;;;;12.40;99.90;;;;;;4973794;28;19932;-86
2022/05/21 02:19:03;;;;;;;;;;;12.40;99.90;;;;;;4958150;28;19975;-88
2022/05/21 02:21:29;;;;;;;;;;;12.40;99.90;;;;;;4941830;28;19926;-85
2022/05/21 02:23:55;;;;;;;;;;;12.30;99.90;;;;;;4989961;28;20052;-86
2022/05/21 02:26:21;;;;;;;;;;;12.50;99.90;;;;;;4996297;28;19933;-90
2022/05/21 02:28:47;;;;;;;;;;;12.50;99.90;;;;;;4977658;28;19984;-82
2022/05/21 02:31:13;;;;;;;;;;;12.50;99.90;;;;;;4976679;28;19929;-87
2022/05/21 02:33:40;;;;;;;;;;;12.40;99.90;;;;;;4994604;28;19979;-87
2022/05/21 02:36:06;;;;;;;;;;;12.40;99.90;;;;;;4956249;28;19932;-84
2022/05/21 02:41:16;;;;;;;;;;;12.50;99.90;;;;;;4989439;28;19922;-87
2022/05/21 02:43:43;;;;;;;;;;;12.50;99.90;;;;;;4977791;28;19925;-87
2022/05/21 02:46:09;;;;;;;;;;;12.50;99.90;;;;;;4958816;28;19952;-86
2022/05/21 02:48:35;;;;;;;;;;;12.50;99.90;;;;;;4961384;28;20036;-87
2022/05/21 02:51:02;;;;;;;;;;;12.50;99.90;;;;;;4960917;28;20323;-86
2022/05/21 02:53:27;;;;;;;;;;;12.50;99.90;;;;;;4993506;28;19921;-87
2022/05/21 02:55:55;;;;;;;;;;;12.50;99.90;;;;;;4953270;28;19999;-86
2022/05/21 02:58:21;;;;;;;;;;;12.50;99.90;;;;;;4962648;28;19926;-85
2022/05/21 03:00:47;;;;;;;;;;;12.60;99.90;;;;;;4955550;28;20000;-91
2022/05/21 03:03:13;;;;;;;;;;;12.60;99.90;;;;;;4959023;28;19930;-86
2022/05/21 03:05:39;;;;;;;;;;;12.60;99.90;;;;;;4990276;28;20072;-89
2022/05/21 03:10:54;;;;;;;;;;;12.70;99.90;;;;;;4987850;28;19925;-85
2022/05/21 03:13:20;;;;;;;;;;;12.70;99.90;;;;;;4978707;28;19965;-87
2022/05/21 03:15:46;;;;;;;;;;;12.70;99.90;;;;;;4959356;28;20041;-88
2022/05/21 03:18:12;;;;;;;;;;;12.70;99.90;;;;;;4976182;28;19929;-87
2022/05/21 03:20:38;;;;;;;;;;;12.70;99.90;;;;;;4990566;28;20853;-85
2022/05/21 03:23:05;;;;;;;;;;;12.60;99.90;;;;;;4972932;28;20054;-87
2022/05/21 03:25:31;;;;;;;;;;;12.70;99.90;;;;;;4981887;28;20087;-84
2022/05/21 03:27:57;;;;;;;;;;;12.70;99.90;;;;;;4993371;28;20108;-86
2022/05/21 03:30:23;;;;;;;;;;;12.70;99.90;;;;;;4974188;28;19925;-84
2022/05/21 03:32:49;;;;;;;;;;;12.60;99.90;;;;;;4963149;28;19921;-91
2022/05/21 03:35:18;;;;;;;;;;;12.60;99.90;;;;;;4995430;28;19933;-85
2022/05/21 03:37:44;;;;;;;;;;;12.60;99.90;;;;;;4974347;28;19933;-86
2022/05/21 03:40:12;;;;;;;;;;;12.60;99.90;;;;;;4977504;28;20432;-86
2022/05/21 03:42:38;;;;;;;;;;;12.60;99.90;;;;;;4975392;28;20693;-82
2022/05/21 03:45:05;;;;;;;;;;;12.70;99.90;;;;;;4983137;28;20012;-83
2022/05/21 03:47:30;;;;;;;;;;;12.80;99.90;;;;;;4975936;28;20283;-86
2022/05/21 03:49:56;;;;;;;;;;;12.70;99.90;;;;;;4965494;28;19925;-89
2022/05/21 03:52:22;;;;;;;;;;;12.70;99.90;;;;;;4993160;28;19925;-87
2022/05/21 03:54:48;;;;;;;;;;;12.60;99.90;;;;;;4958685;28;19929;-84
2022/05/21 03:57:15;;;;;;;;;;;12.60;99.90;;;;;;4980098;28;20318;-86
2022/05/21 03:59:41;;;;;;;;;;;12.60;99.90;;;;;;4960676;28;19930;-86
2022/05/21 04:02:07;;;;;;;;;;;12.60;99.90;;;;;;4981209;28;19926;-86
2022/05/21 04:04:33;;;;;;;;;;;12.60;99.90;;;;;;4980142;28;19932;-86
2022/05/21 04:06:59;;;;;;;;;;;12.70;99.90;;;;;;4977940;28;19925;-86
2022/05/21 04:09:28;;;;;;;;;;;12.80;99.90;;;;;;4979982;28;20024;-86
2022/05/21 04:11:55;;;;;;;;;;;12.80;99.90;;;;;;4975334;28;19926;-84
2022/05/21 04:14:21;;;;;;;;;;;12.80;99.90;;;;;;4974461;28;19925;-83
2022/05/21 04:16:47;;;;;;;;;;;12.80;99.90;;;;;;4973214;28;19932;-86
2022/05/21 04:19:13;;;;;;;;;;;12.90;99.90;;;;;;4982227;28;20336;-89
2022/05/21 04:21:39;;;;;;;;;;;12.90;99.90;;;;;;4962920;28;19930;-85
2022/05/21 04:24:05;;;;;;;;;;;12.90;99.90;;;;;;4960986;28;20287;-88
2022/05/21 04:26:31;;;;;;;;;;;12.90;99.90;;;;;;4942067;28;19922;-89
2022/05/21 04:28:57;;;;;;;;;;;12.90;99.90;;;;;;4977307;28;19988;-90
2022/05/21 04:31:23;;;;;;;;;;;13.00;99.90;;;;;;4944625;28;19976;-85
2022/05/21 04:33:48;;;;;;;;;;;13.00;99.90;;;;;;4942413;28;20674;-84
2022/05/21 04:36:21;;;;;;;;;;;13.10;99.90;;;;;;4963074;28;20677;-87
2022/05/21 04:38:48;;;;;;;;;;;13.10;99.90;;;;;;4945673;28;20587;-88
2022/05/21 04:41:14;;;;;;;;;;;13.10;99.90;;;;;;4967787;28;19939;-85
2022/05/21 04:43:40;;;;;;;;;;;13.20;99.90;;;;;;4959488;28;19925;-85
2022/05/21 04:46:06;;;;;;;;;;;13.20;99.90;;;;;;4956407;28;20375;-89
2022/05/21 04:48:32;;;;;;;;;;;13.20;99.90;;;;;;4974218;28;20344;-82
2022/05/21 04:50:59;;;;;;;;;;;13.10;99.90;;;;;;4969326;28;20441;-86
2022/05/21 04:53:25;;;;;;;;;;;13.20;99.90;;;;;;4950685;28;20411;-89
2022/05/21 04:55:50;;;;;;;;;;;13.20;99.90;;;;;;4972675;28;19961;-83
2022/05/21 04:58:16;;;;;;;;;;;13.20;99.90;;;;;;4970383;28;20503;-84
2022/05/21 05:00:42;;;;;;;;;;;13.30;99.90;;;;;;4937475;28;19952;-84
2022/05/21 05:03:11;;;;;;;;;;;13.30;99.90;;;;;;4973916;28;19956;-84
2022/05/21 05:05:38;;;;;;;;;;;13.30;99.90;;;;;;4955508;28;19931;-86
2022/05/21 05:08:04;;;;;;;;;;;13.30;99.90;;;;;;4976319;28;19925;-87
2022/05/21 05:10:29;;;;;;;;;;;13.40;99.90;;;;;;4941966;28;19932;-87
2022/05/21 05:12:55;;;;;;;;;;;13.40;99.90;;;;;;4976330;28;20052;-84
2022/05/21 05:15:21;;;;;;;;;;;13.50;99.90;;;;;;4958979;28;19936;-86
2022/05/21 05:17:47;;;;;;;;;;;13.50;99.90;;;;;;4957708;28;20585;-84
2022/05/21 05:20:12;;;;;;;;;;;13.50;99.90;;;;;;4973033;28;19925;-87
2022/05/21 05:22:38;;;;;;;;;;;13.50;99.90;;;;;;4952275;28;19999;-88
2022/05/21 05:25:05;;;;;;;;;;;13.50;99.90;;;;;;4961059;28;19936;-83
2022/05/21 05:27:30;;;;;;;;;;;13.60;99.90;;;;;;4998199;28;19936;-87
2022/05/21 05:29:56;;;;;;;;;;;13.70;99.90;;;;;;4979056;28;19929;-85
2022/05/21 05:32:22;;;;;;;;;;;13.80;99.90;;;;;;4979635;28;20035;-86
2022/05/21 05:34:47;;;;;;;;;;;13.90;99.90;;;;;;4957510;28;20697;-86
2022/05/21 05:37:13;;;;;;;;;;;13.90;99.90;;;;;;4976647;28;19933;-89
2022/05/21 05:39:39;;;;;;;;;;;14.60;99.90;;;;;;4962303;28;19922;-87
2022/05/21 05:42:05;;;;;;;;;;;14.90;99.90;;;;;;4977900;28;19929;-87
2022/05/21 05:44:31;;;;;;;;;;;14.70;99.90;;;;;;4980156;28;19967;-88
2022/05/21 05:46:57;;;;;;;;;;;14.70;99.90;;;;;;4995950;28;20020;-85
2022/05/21 05:49:22;;;;;;;;;;;14.50;99.90;;;;;;4997138;28;20421;-87
2022/05/21 05:51:48;;;;;;;;;;;14.50;99.90;;;;;;4978961;28;19925;-84
2022/05/21 05:54:14;;;;;;;;;;;14.80;99.90;;;;;;4987654;28;19980;-86
2022/05/21 05:56:44;;;;;;;;;;;15.40;99.90;;;;;;4997449;28;19925;-86
2022/05/21 06:02:57;;;;;;;;;;;15.80;99.90;;;;;;4973662;28;19978;-84
2022/05/21 06:04:40;;;;;;;;;;;16.10;99.90;;;;;;4987094;28;19947;-86
2022/05/21 06:07:06;;;;;;;;;;;15.90;99.90;;;;;;4977166;28;19929;-85
2022/05/21 06:09:32;;;;;;;;;;;15.90;99.90;;;;;;4976938;28;19968;-86
2022/05/21 06:11:59;;;;;;;;;;;15.80;99.90;;;;;;4975567;28;20016;-86
2022/05/21 06:14:25;;;;;;;;;;;15.50;99.90;;;;;;4977275;28;20730;-84
2022/05/21 06:16:51;;;;;;;;;;;15.40;99.90;;;;;;4964779;28;19935;-92
2022/05/21 06:19:17;;;;;;;;;;;15.70;99.90;;;;;;4978631;28;19925;-87
2022/05/21 06:21:43;;;;;;;;;;;16.00;99.90;;;;;;4996297;28;19921;-85
2022/05/21 06:24:08;;;;;;;;;;;16.30;99.90;;;;;;4995679;28;20640;-84
2022/05/21 06:26:34;;;;;;;;;;;16.40;99.90;;;;;;4995781;28;19929;-88
2022/05/21 06:29:00;;;;;;;;;;;16.50;99.90;;;;;;4997574;28;19931;-85
2022/05/21 06:31:26;;;;;;;;;;;15.90;99.90;;;;;;4973689;28;19925;-87
2022/05/21 06:33:52;;;;;;;;;;;15.70;99.90;;;;;;4978041;28;20342;-85
2022/05/21 06:36:18;;;;;;;;;;;15.70;99.90;;;;;;4994128;28;19921;-86
2022/05/21 06:38:44;;;;;;;;;;;16.10;99.90;;;;;;4941888;28;21189;-84
2022/05/21 06:41:10;;;;;;;;;;;16.10;99.90;;;;;;4971539;28;19992;-85
2022/05/21 06:43:39;;;;;;;;;;;15.80;99.90;;;;;;4994037;28;19931;-88
2022/05/21 06:46:05;;;;;;;;;;;15.70;99.90;;;;;;4964217;28;19940;-87
2022/05/21 06:48:30;;;;;;;;;;;15.90;99.90;;;;;;4993714;28;20326;-86
2022/05/21 06:50:56;;;;;;;;;;;16.20;99.90;;;;;;4979268;28;19979;-90
2022/05/21 06:53:22;;;;;;;;;;;16.60;99.90;;;;;;4975747;28;19929;-87
2022/05/21 06:55:48;;;;;;;;;;;16.60;99.90;;;;;;4965060;28;20163;-83
2022/05/21 06:58:14;;;;;;;;;;;16.80;99.90;;;;;;4996365;28;19925;-87
2022/05/21 07:00:39;;;;;;;;;;;16.70;99.90;;;;;;4978264;28;19948;-86
2022/05/21 07:03:05;;;;;;;;;;;16.90;99.90;;;;;;4979320;28;19931;-85
2022/05/21 07:08:26;;;;;;;;;;;17.00;99.90;;;;;;4996341;28;19929;-88
2022/05/21 07:10:52;;;;;;;;;;;17.20;99.90;;;;;;4994178;28;19976;-86
2022/05/21 07:13:19;;;;;;;;;;;17.30;99.90;;;;;;4978840;28;19925;-87
2022/05/21 07:15:47;;;;;;;;;;;17.50;99.90;;;;;;4977574;28;19925;-89
2022/05/21 07:18:15;;;;;;;;;;;17.50;99.90;;;;;;4995714;28;19926;-88
2022/05/21 07:20:41;;;;;;;;;;;17.40;99.90;;;;;;4976808;28;20091;-88
2022/05/21 07:23:06;;;;;;;;;;;17.30;99.90;;;;;;4956817;28;20017;-86
2022/05/21 07:25:32;;;;;;;;;;;17.20;99.90;;;;;;4976296;28;19933;-86
2022/05/21 07:27:59;;;;;;;;;;;17.50;99.90;;;;;;4997384;28;20029;-84
2022/05/21 07:30:25;;;;;;;;;;;17.10;99.90;;;;;;4975851;28;19935;-84
2022/05/21 07:32:52;;;;;;;;;;;17.10;99.90;;;;;;4952924;28;20008;-84
2022/05/21 07:35:19;;;;;;;;;;;17.20;99.90;;;;;;4973245;28;19980;-84
2022/05/21 07:37:44;;;;;;;;;;;17.30;99.90;;;;;;4972258;28;19929;-83
2022/05/21 07:40:11;;;;;;;;;;;17.40;99.90;;;;;;4989437;28;20334;-86
2022/05/21 07:42:37;;;;;;;;;;;17.40;99.90;;;;;;4972538;28;20005;-85
2022/05/21 07:45:04;;;;;;;;;;;17.40;99.90;;;;;;4956777;28;19972;-88
2022/05/21 07:47:30;;;;;;;;;;;17.80;99.90;;;;;;4972211;28;19930;-86
2022/05/21 07:49:58;;;;;;;;;;;18.10;99.90;;;;;;4958272;28;19932;-81
2022/05/21 07:52:24;;;;;;;;;;;18.10;99.90;;;;;;4995302;28;19925;-87
2022/05/21 07:54:59;;;;;;;;;;;18.10;99.90;;;;;;4993648;28;19957;-86
2022/05/21 07:57:25;;;;;;;;;;;18.00;99.90;;;;;;4996343;28;20713;-90
2022/05/21 07:59:51;;;;;;;;;;;17.60;99.90;;;;;;4994262;28;19930;-89
2022/05/21 08:02:18;;;;;;;;;;;17.50;99.90;;;;;;4993237;28;20422;-85
2022/05/21 08:04:47;;;;;;;;;;;17.00;99.90;;;;;;4963885;28;19999;-86
2022/05/21 08:07:14;;;;;;;;;;;16.70;99.90;;;;;;4985352;28;19972;-84
2022/05/21 08:09:40;;;;;;;;;;;16.50;99.90;;;;;;4966050;28;20488;-87
2022/05/21 08:12:12;;;;;;;;;;;16.40;99.90;;;;;;4955007;28;20290;-86
2022/05/21 08:14:41;;;;;;;;;;;16.20;99.90;;;;;;4977881;28;19926;-86
2022/05/21 08:17:13;;;;;;;;;;;16.00;99.90;;;;;;4979091;28;19933;-85
2022/05/21 08:19:40;;;;;;;;;;;16.70;99.90;;;;;;4983464;28;19925;-85
2022/05/21 08:27:34;;;;;;;;;;;16.80;99.90;;;;;;4985186;28;19925;-83
2022/05/21 08:30:03;;;;;;;;;;;17.70;99.90;;;;;;4967681;28;19932;-86
2022/05/21 08:32:29;;;;;;;;;;;18.10;99.90;;;;;;4953538;28;20038;-86
2022/05/21 08:34:54;;;;;;;;;;;17.80;99.90;;;;;;4968949;28;20032;-84
2022/05/21 08:37:20;;;;;;;;;;;17.50;99.90;;;;;;4984511;28;19932;-83
2022/05/21 08:39:46;;;;;;;;;;;17.10;99.90;;;;;;4985533;28;20115;-88
2022/05/21 08:42:17;;;;;;;;;;;16.80;99.90;;;;;;4966333;28;20031;-89
2022/05/21 08:44:46;;;;;;;;;;;16.50;99.90;;;;;;4948399;28;20347;-85
2022/05/21 08:47:27;;;;;;;;;;;16.40;99.90;;;;;;4991622;28;19996;-84
2022/05/21 08:49:56;;;;;;;;;;;17.30;99.90;;;;;;4984489;28;19925;-86
2022/05/21 08:52:25;;;;;;;;;;;18.10;99.90;;;;;;4985555;28;19924;-85
2022/05/21 08:54:52;;;;;;;;;;;18.30;99.90;;;;;;4967349;28;19925;-82
2022/05/21 08:57:25;;;;;;;;;;;18.30;99.90;;;;;;4983701;28;21271;-85
2022/05/21 09:00:01;;;;;;;;;;;17.70;99.90;;;;;;4952668;28;19930;-88
2022/05/21 09:02:30;;;;;;;;;;;18.30;99.90;;;;;;4972070;28;20012;-87
2022/05/21 09:04:56;;;;;;;;;;;18.50;99.90;;;;;;4983980;28;19925;-81
2022/05/21 09:07:23;;;;;;;;;;;18.70;99.90;;;;;;4969188;28;19925;-84
2022/05/21 09:09:54;;;;;;;;;;;18.20;99.90;;;;;;4966697;28;19925;-82
2022/05/21 09:12:22;;;;;;;;;;;18.00;99.90;;;;;;4973396;28;20463;-82
2022/05/21 09:14:52;;;;;;;;;;;18.70;99.90;;;;;;4990419;28;19925;-82
2022/05/21 09:17:19;;;;;;;;;;;18.70;99.90;;;;;;4985967;28;20321;-84
2022/05/21 09:19:50;;;;;;;;;;;19.10;99.90;;;;;;4980187;28;19929;-84
2022/05/21 09:22:17;;;;;;;;;;;19.40;99.90;;;;;;4956095;28;19936;-86
2022/05/21 09:24:44;;;;;;;;;;;18.80;99.90;;;;;;4954165;28;20300;-85
2022/05/21 09:27:31;;;;;;;;;;;18.70;99.90;;;;;;4984386;28;20076;-86
2022/05/21 09:30:17;;;;;;;;;;;18.80;99.90;;;;;;4965232;28;20756;-85
2022/05/21 09:32:46;;;;;;;;;;;19.00;99.90;;;;;;4958035;28;20306;-81
2022/05/21 09:35:16;;;;;;;;;;;19.10;99.90;;;;;;4981280;28;19929;-84
2022/05/21 09:37:43;;;;;;;;;;;19.10;99.90;;;;;;4982590;28;19925;-85
2022/05/21 09:40:28;;;;;;;;;;;19.10;99.90;;;;;;4948126;28;20020;-84
2022/05/21 09:45:38;;;;;;;;;;;19.00;99.90;;;;;;4978135;28;20007;-83
2022/05/21 09:48:07;;;;;;;;;;;18.90;99.90;;;;;;4977938;28;20379;-82
2022/05/21 09:50:47;;;;;;;;;;;19.10;99.90;;;;;;4989710;28;19941;-80
2022/05/21 09:53:33;;;;;;;;;;;18.30;99.90;;;;;;4980811;28;19921;-82
2022/05/21 09:56:28;;;;;;;;;;;17.90;99.90;;;;;;4994248;28;20338;-88
2022/05/21 09:59:14;;;;;;;;;;;18.10;99.90;;;;;;4960255;28;19925;-82
2022/05/21 10:01:44;;;;;;;;;;;18.70;99.90;;;;;;5000417;28;19971;-83
2022/05/21 10:04:13;;;;;;;;;;;18.30;99.90;;;;;;4994225;28;20019;-84
2022/05/21 10:06:42;;;;;;;;;;;18.10;99.90;;;;;;4978770;28;19936;-83
2022/05/21 10:12:24;;;;;;;;;;;18.30;99.90;;;;;;4996991;28;20642;-82
2022/05/21 10:14:59;;;;;;;;;;;18.90;99.90;;;;;;5003474;28;19924;-84
2022/05/21 10:17:36;;;;;;;;;;;19.10;99.90;;;;;;4979869;28;20398;-84
2022/05/21 10:20:21;;;;;;;;;;;18.60;99.90;;;;;;4974892;28;19987;-85
2022/05/21 10:23:08;;;;;;;;;;;18.90;99.90;;;;;;5002813;28;20183;-84
2022/05/21 10:25:43;;;;;;;;;;;18.60;99.90;;;;;;4987103;28;19936;-88
2022/05/21 10:28:27;;;;;;;;;;;19.40;99.90;;;;;;5000901;28;20028;-88
2022/05/21 10:30:53;;;;;;;;;;;19.60;99.90;;;;;;4972420;28;19933;-84
2022/05/21 10:33:40;;;;;;;;;;;19.60;99.90;;;;;;4993626;28;19929;-86
2022/05/21 10:36:24;;;;;;;;;;;19.00;99.90;;;;;;4985286;28;20267;-86
2022/05/21 10:39:02;;;;;;;;;;;19.10;99.90;;;;;;4981888;28;19929;-84
2022/05/21 10:41:31;;;;;;;;;;;19.70;99.90;;;;;;4991136;28;19932;-92
2022/05/21 10:43:57;;;;;;;;;;;19.40;99.90;;;;;;4966772;28;20372;-82
2022/05/21 10:46:25;;;;;;;;;;;19.00;99.90;;;;;;4994628;28;19932;-83
2022/05/21 10:48:51;;;;;;;;;;;19.10;99.90;;;;;;4974441;28;19924;-86
2022/05/21 10:51:20;;;;;;;;;;;19.10;99.90;;;;;;4972096;28;21194;-86
2022/05/21 10:53:45;;;;;;;;;;;19.60;99.90;;;;;;4972642;28;19921;-86
2022/05/21 10:56:11;;;;;;;;;;;19.10;99.90;;;;;;4993157;28;20739;-86
2022/05/21 10:58:40;;;;;;;;;;;18.70;99.90;;;;;;4994169;28;19973;-85
2022/05/21 11:01:05;;;;;;;;;;;19.60;99.90;;;;;;4969961;28;20035;-85
2022/05/21 11:03:45;;;;;;;;;;;19.20;99.90;;;;;;4964035;28;19925;-85
2022/05/21 11:06:19;;;;;;;;;;;18.70;99.90;;;;;;4972318;28;19936;-82
2022/05/21 11:08:54;;;;;;;;;;;18.50;99.90;;;;;;4986279;28;19925;-85
2022/05/21 11:11:19;;;;;;;;;;;19.30;99.90;;;;;;4977981;28;19970;-84
2022/05/21 11:14:04;;;;;;;;;;;19.60;99.90;;;;;;4961055;28;20524;-82
2022/05/21 11:16:41;;;;;;;;;;;19.60;99.90;;;;;;4976024;28;19929;-83
2022/05/21 11:19:21;;;;;;;;;;;19.00;99.90;;;;;;4962200;28;19951;-86
2022/05/21 11:21:48;;;;;;;;;;;18.50;99.90;;;;;;4962222;28;19925;-86
2022/05/21 11:24:27;;;;;;;;;;;18.10;99.90;;;;;;4984633;28;20487;-85
2022/05/21 11:26:59;;;;;;;;;;;18.70;99.90;;;;;;4962164;28;19929;-83
2022/05/21 11:29:33;;;;;;;;;;;19.20;99.90;;;;;;4982198;28;19932;-83
2022/05/21 11:37:42;;;;;;;;;;;18.70;99.90;;;;;;4996978;28;19925;-84
2022/05/21 11:40:09;;;;;;;;;;;18.80;99.90;;;;;;4990434;28;19924;-82
2022/05/21 11:42:35;;;;;;;;;;;19.10;99.90;;;;;;4994993;28;19932;-87
2022/05/21 11:45:09;;;;;;;;;;;18.90;99.90;;;;;;4973407;28;19925;-85
2022/05/21 11:47:50;;;;;;;;;;;18.80;99.90;;;;;;4980063;28;20023;-83
2022/05/21 11:50:18;;;;;;;;;;;18.60;99.90;;;;;;4978975;28;19947;-84
2022/05/21 11:52:50;;;;;;;;;;;18.50;99.90;;;;;;4997839;28;19929;-83
2022/05/21 11:55:24;;;;;;;;;;;18.50;99.90;;;;;;4996867;28;19928;-84
2022/05/21 11:57:54;;;;;;;;;;;18.50;99.90;;;;;;4977322;28;19929;-85
2022/05/21 12:00:20;;;;;;;;;;;18.80;99.90;;;;;;4979785;28;20662;-83
2022/05/21 12:02:55;;;;;;;;;;;19.10;99.90;;;;;;4983257;28;19925;-84
2022/05/21 12:05:33;;;;;;;;;;;19.30;99.90;;;;;;4975525;28;19925;-82
2022/05/21 12:08:12;;;;;;;;;;;19.50;99.90;;;;;;4985658;28;19976;-85
2022/05/21 12:10:57;;;;;;;;;;;19.50;99.90;;;;;;4981564;28;20734;-81
2022/05/21 12:13:35;;;;;;;;;;;19.60;99.90;;;;;;4999842;28;20332;-86
2022/05/21 12:16:02;;;;;;;;;;;19.80;99.90;;;;;;5000981;28;20505;-85
2022/05/21 12:18:31;;;;;;;;;;;20.00;99.90;;;;;;4975575;28;19932;-86
2022/05/21 12:20:56;;;;;;;;;;;19.90;99.90;;;;;;4976147;28;19972;-82
2022/05/21 12:23:31;;;;;;;;;;;19.80;99.90;;;;;;4979494;28;20968;-87
2022/05/21 12:25:59;;;;;;;;;;;19.80;99.90;;;;;;4994109;28;19921;-84
2022/05/21 12:28:29;;;;;;;;;;;19.40;99.90;;;;;;4994098;28;19935;-82
2022/05/21 12:31:00;;;;;;;;;;;19.10;99.90;;;;;;4992641;28;20844;-82
2022/05/21 12:33:46;;;;;;;;;;;19.20;99.90;;;;;;4982611;28;19949;-83
2022/05/21 12:36:28;;;;;;;;;;;19.40;99.90;;;;;;4935458;28;20413;-84
2022/05/21 12:38:54;;;;;;;;;;;19.70;99.90;;;;;;4993523;28;20004;-88
2022/05/21 12:41:24;;;;;;;;;;;19.60;99.90;;;;;;4974090;28;19978;-84
2022/05/21 12:43:51;;;;;;;;;;;19.60;99.90;;;;;;4999480;28;19925;-84
2022/05/21 12:46:25;;;;;;;;;;;19.60;99.90;;;;;;4999768;28;20467;-85
2022/05/21 12:48:51;;;;;;;;;;;19.80;99.90;;;;;;4994467;28;19932;-84
2022/05/21 12:51:23;;;;;;;;;;;20.20;99.90;;;;;;4994339;28;19991;-82
2022/05/21 12:53:52;;;;;;;;;;;20.00;99.90;;;;;;4980308;28;20032;-83
2022/05/21 12:56:24;;;;;;;;;;;20.20;99.90;;;;;;4979220;28;19925;-83
2022/05/21 12:59:08;;;;;;;;;;;20.60;99.90;;;;;;4993355;28;19936;-84
2022/05/21 13:01:38;;;;;;;;;;;20.80;99.90;;;;;;4985146;28;19929;-83
2022/05/21 13:04:20;;;;;;;;;;;20.90;99.90;;;;;;4974956;28;19933;-84
2022/05/21 13:06:45;;;;;;;;;;;21.00;99.90;;;;;;4971770;28;19921;-83
2022/05/21 13:09:13;;;;;;;;;;;21.30;99.90;;;;;;4971292;28;20567;-82
2022/05/21 13:11:41;;;;;;;;;;;21.00;99.90;;;;;;4965324;28;19996;-86
2022/05/21 13:14:10;;;;;;;;;;;20.70;99.90;;;;;;4976571;28;20118;-85
2022/05/21 13:16:45;;;;;;;;;;;20.30;99.90;;;;;;4974124;28;19936;-86
2022/05/21 13:19:14;;;;;;;;;;;19.90;99.90;;;;;;4955140;28;19937;-83
2022/05/21 13:21:45;;;;;;;;;;;19.40;99.90;;;;;;4961636;28;19925;-83
2022/05/21 13:24:35;;;;;;;;;;;19.30;99.90;;;;;;4975103;28;19948;-84
2022/05/21 13:27:10;;;;;;;;;;;19.50;99.90;;;;;;4973001;28;20044;-84
2022/05/21 13:29:36;;;;;;;;;;;20.10;99.90;;;;;;4974019;28;19990;-83
2022/05/21 13:32:24;;;;;;;;;;;20.10;99.90;;;;;;4968764;28;19995;-86
2022/05/21 13:34:51;;;;;;;;;;;20.40;99.90;;;;;;4972291;28;20419;-85
2022/05/21 13:37:18;;;;;;;;;;;20.70;99.90;;;;;;4954402;28;19933;-86
2022/05/21 13:39:56;;;;;;;;;;;20.50;99.90;;;;;;4941234;28;19925;-84
2022/05/21 13:42:21;;;;;;;;;;;20.40;99.90;;;;;;4959550;28;20009;-84
2022/05/21 13:44:49;;;;;;;;;;;20.50;99.90;;;;;;4974845;28;20797;-84
2022/05/21 13:47:20;;;;;;;;;;;20.50;99.90;;;;;;4973582;28;19929;-84
2022/05/21 13:49:49;;;;;;;;;;;20.30;99.90;;;;;;4978166;28;19924;-84
2022/05/21 13:52:14;;;;;;;;;;;19.80;99.90;;;;;;4970254;28;20298;-85
2022/05/21 13:54:41;;;;;;;;;;;19.70;99.90;;;;;;4973031;28;19980;-85
2022/05/21 13:57:18;;;;;;;;;;;19.30;99.90;;;;;;4980491;28;20462;-84
2022/05/21 13:59:52;;;;;;;;;;;19.20;99.90;;;;;;4970037;28;19925;-85
2022/05/21 14:02:21;;;;;;;;;;;18.90;99.90;;;;;;4973162;28;20566;-86
2022/05/21 14:04:47;;;;;;;;;;;18.70;99.90;;;;;;4988292;28;20714;-85
2022/05/21 14:07:34;;;;;;;;;;;18.50;99.90;;;;;;4996150;28;19925;-80
2022/05/21 14:10:04;;;;;;;;;;;18.60;99.90;;;;;;4997125;28;19925;-83
2022/05/21 14:12:33;;;;;;;;;;;18.70;99.90;;;;;;4997072;28;19983;-81
2022/05/21 14:15:04;;;;;;;;;;;18.80;99.90;;;;;;4992060;28;20397;-84
2022/05/21 14:17:35;;;;;;;;;;;18.60;99.90;;;;;;4974603;28;19972;-83
2022/05/21 14:20:12;;;;;;;;;;;18.70;99.90;;;;;;4994296;28;19928;-82
2022/05/21 14:22:41;;;;;;;;;;;18.60;99.90;;;;;;4971071;28;19926;-81
2022/05/21 14:25:16;;;;;;;;;;;18.30;99.90;;;;;;4976846;28;19926;-87
2022/05/21 14:28:14;;;;;;;;;;;18.40;99.90;;;;;;4969085;28;20113;-85
2022/05/21 14:30:42;;;;;;;;;;;18.80;99.90;;;;;;4953306;28;19933;-84
2022/05/21 14:33:09;;;;;;;;;;;19.30;99.90;;;;;;4988080;28;20016;-87
2022/05/21 14:35:35;;;;;;;;;;;19.10;99.90;;;;;;4985325;28;19926;-83
2022/05/21 14:38:02;;;;;;;;;;;19.00;99.90;;;;;;4979351;28;19922;-86
2022/05/21 14:40:29;;;;;;;;;;;19.10;99.90;;;;;;4974997;28;20370;-87
2022/05/21 14:43:01;;;;;;;;;;;18.90;99.90;;;;;;4968089;28;20767;-83
2022/05/21 14:45:30;;;;;;;;;;;18.60;99.90;;;;;;4976431;28;19940;-83
2022/05/21 14:47:57;;;;;;;;;;;19.20;99.90;;;;;;4976199;28;20966;-82
2022/05/21 14:53:10;;;;;;;;;;;19.00;99.90;;;;;;4977088;28;19922;-82
2022/05/21 14:55:36;;;;;;;;;;;18.80;99.90;;;;;;4975279;28;19926;-82
2022/05/21 14:58:02;;;;;;;;;;;18.60;99.90;;;;;;4986210;28;19941;-83
2022/05/21 15:00:28;;;;;;;;;;;18.50;99.90;;;;;;4974320;28;22687;-81